createdAt,value
2023-05-01T00:01:00.325Z,9.00
2023-05-01T00:03:28.265Z,10.02
2023-05-01T00:06:05.049Z,8.20
2023-05-01T00:08:32.658Z,7.53
2023-05-01T00:11:04.766Z,7.13
2023-05-01T00:13:32.453Z,8.15
2023-05-01T00:15:59.746Z,8.48
2023-05-01T00:18:27.313Z,8.95
2023-05-01T00:20:54.795Z,7.75
2023-05-01T00:23:21.933Z,6.88
2023-05-01T00:25:49.655Z,7.78
2023-05-01T00:28:19.214Z,6.78
2023-05-01T00:30:47.248Z,13.02
2023-05-01T00:33:15.642Z,7.32
2023-05-01T00:35:46.811Z,7.90
2023-05-01T00:38:14.346Z,7.38
2023-05-01T00:40:45.905Z,6.40
2023-05-01T00:43:14.162Z,7.03
2023-05-01T00:45:46.300Z,10.13
2023-05-01T00:48:15.207Z,9.67
2023-05-01T00:50:44.981Z,8.75
2023-05-01T00:53:12.670Z,8.63
2023-05-01T00:55:42.160Z,6.65
2023-05-01T00:58:11.372Z,5.25
2023-05-01T01:00:39.072Z,6.63
2023-05-01T01:03:06.869Z,5.63
2023-05-01T01:05:40.861Z,4.78
2023-05-01T01:08:14.283Z,5.05
2023-05-01T01:10:54.584Z,8.98
2023-05-01T01:13:42.700Z,7.28
2023-05-01T01:16:28.574Z,6.95
2023-05-01T01:19:22.313Z,6.40
2023-05-01T01:21:54.782Z,5.57
2023-05-01T01:24:47.970Z,4.97
2023-05-01T01:27:54.885Z,5.65
2023-05-01T01:30:53.858Z,6.65
2023-05-01T01:33:39.403Z,5.05
2023-05-01T01:36:11.978Z,8.75
2023-05-01T01:38:58.957Z,7.32
2023-05-01T01:41:35.034Z,6.55
2023-05-01T01:44:24.590Z,5.35
2023-05-01T01:46:54.625Z,7.53
2023-05-01T01:49:28.011Z,4.55
2023-05-01T01:51:57.264Z,6.22
2023-05-01T01:54:33.591Z,6.28
2023-05-01T01:57:02.773Z,7.07
2023-05-01T01:59:35.141Z,6.55
2023-05-01T02:02:05.303Z,5.88
2023-05-01T02:04:34.270Z,6.05
2023-05-01T02:07:02.226Z,6.10
2023-05-01T02:09:31.371Z,6.15
2023-05-01T02:12:01.139Z,4.78
2023-05-01T02:14:30.734Z,6.45
2023-05-01T02:16:58.912Z,4.57
2023-05-01T02:19:27.150Z,5.60
2023-05-01T02:21:57.787Z,5.55
2023-05-01T02:24:27.449Z,5.38
2023-05-01T02:27:01.563Z,4.90
2023-05-01T02:29:29.096Z,5.10
2023-05-01T02:31:56.627Z,5.35
2023-05-01T02:34:24.496Z,4.03
2023-05-01T02:36:51.618Z,5.30
2023-05-01T02:39:19.179Z,4.72
2023-05-01T02:41:48.933Z,6.32
2023-05-01T02:44:16.767Z,5.90
2023-05-01T02:46:47.343Z,8.50
2023-05-01T02:49:17.161Z,4.90
2023-05-01T02:51:46.824Z,6.75
2023-05-01T02:54:14.543Z,5.30
2023-05-01T02:56:42.478Z,4.55
2023-05-01T02:59:09.613Z,7.97
2023-05-01T03:01:37.175Z,4.97
2023-05-01T03:04:04.524Z,6.75
2023-05-01T03:06:32.041Z,5.88
2023-05-01T03:08:59.356Z,5.68
2023-05-01T03:11:27.067Z,6.47
2023-05-01T03:13:54.485Z,10.30
2023-05-01T03:16:22.193Z,6.13
2023-05-01T03:18:49.775Z,6.55
2023-05-01T03:21:17.986Z,6.72
2023-05-01T03:23:45.581Z,8.43
2023-05-01T03:26:12.809Z,9.90
2023-05-01T03:28:40.113Z,7.13
2023-05-01T03:31:07.554Z,6.95
2023-05-01T03:33:35.081Z,9.30
2023-05-01T03:36:04.421Z,7.90
2023-05-01T03:38:33.816Z,6.43
2023-05-01T03:41:10.396Z,7.80
2023-05-01T03:43:40.490Z,7.30
2023-05-01T03:46:16.260Z,6.88
2023-05-01T03:48:44.424Z,6.32
2023-05-01T03:51:11.770Z,6.25
2023-05-01T03:53:39.416Z,6.25
2023-05-01T03:56:09.329Z,6.93
2023-05-01T03:58:36.915Z,5.82
2023-05-01T04:01:05.005Z,5.88
2023-05-01T04:03:33.587Z,6.60
2023-05-01T04:06:01.036Z,4.85
2023-05-01T04:08:28.508Z,6.00
2023-05-01T04:10:56.279Z,5.85
2023-05-01T04:13:23.818Z,5.35
2023-05-01T04:15:51.331Z,6.45
2023-05-01T04:18:18.695Z,4.43
2023-05-01T04:20:46.138Z,6.18
2023-05-01T04:23:13.694Z,5.43
2023-05-01T04:25:41.182Z,5.03
2023-05-01T04:28:13.304Z,4.50
2023-05-01T04:30:40.669Z,4.70
2023-05-01T04:33:11.723Z,5.03
2023-05-01T04:35:41.418Z,4.93
2023-05-01T04:38:10.752Z,5.80
2023-05-01T04:40:40.076Z,6.50
2023-05-01T04:43:07.267Z,4.90
2023-05-01T04:45:36.473Z,4.90
2023-05-01T04:48:05.241Z,5.05
2023-05-01T04:50:32.290Z,4.88
2023-05-01T04:52:59.751Z,4.95
2023-05-01T04:55:29.141Z,4.50
2023-05-01T04:58:12.198Z,5.40
2023-05-01T05:00:39.798Z,7.20
2023-05-01T05:03:10.223Z,6.63
2023-05-01T05:05:37.659Z,5.90
2023-05-01T05:08:07.534Z,5.43
2023-05-01T05:10:36.795Z,8.05
2023-05-01T05:13:30.431Z,5.95
2023-05-01T05:16:03.900Z,6.45
2023-05-01T05:18:31.968Z,6.90
2023-05-01T05:21:04.173Z,6.20
2023-05-01T05:23:32.126Z,6.68
2023-05-01T05:26:01.735Z,7.28
2023-05-01T05:28:30.491Z,7.03
2023-05-01T05:30:58.650Z,7.22
2023-05-01T05:33:27.297Z,6.97
2023-05-01T05:35:54.953Z,7.65
2023-05-01T05:38:27.722Z,6.43
2023-05-01T05:40:59.493Z,8.18
2023-05-01T05:43:28.280Z,6.03
2023-05-01T05:45:58.737Z,6.93
2023-05-01T05:48:27.376Z,7.32
2023-05-01T05:50:54.790Z,9.80
2023-05-01T05:53:24.284Z,7.22
2023-05-01T05:55:53.721Z,6.68
2023-05-01T05:58:21.434Z,6.03
2023-05-01T06:00:50.318Z,9.68
2023-05-01T06:03:18.265Z,8.73
2023-05-01T06:05:46.473Z,8.05
2023-05-01T06:08:14.645Z,6.95
2023-05-01T06:10:44.514Z,7.07
2023-05-01T06:13:14.209Z,6.63
2023-05-01T06:15:47.009Z,6.60
2023-05-01T06:18:14.901Z,6.85
2023-05-01T06:20:42.930Z,10.48
2023-05-01T06:23:10.869Z,7.57
2023-05-01T06:25:49.030Z,6.60
2023-05-01T06:28:16.292Z,8.82
2023-05-01T06:30:43.724Z,6.47
2023-05-01T06:33:11.695Z,4.65
2023-05-01T06:35:41.078Z,6.57
2023-05-01T06:38:08.508Z,7.57
2023-05-01T06:40:36.209Z,6.82
2023-05-01T06:43:04.867Z,9.30
2023-05-01T06:45:32.374Z,8.00
2023-05-01T06:47:59.897Z,7.03
2023-05-01T06:50:28.902Z,7.28
2023-05-01T06:52:56.314Z,5.50
2023-05-01T06:55:23.731Z,10.38
2023-05-01T06:57:50.921Z,9.18
2023-05-01T07:00:19.069Z,6.82
2023-05-01T07:02:46.968Z,7.97
2023-05-01T07:05:14.404Z,9.57
2023-05-01T07:07:47.367Z,5.90
2023-05-01T07:10:21.155Z,8.70
2023-05-01T07:12:48.592Z,7.22
2023-05-01T07:15:16.532Z,8.27
2023-05-01T07:17:43.847Z,7.53
2023-05-01T07:20:11.607Z,6.57
2023-05-01T07:22:38.965Z,6.07
2023-05-01T07:25:07.373Z,9.15
2023-05-01T07:27:37.158Z,8.18
2023-05-01T07:30:05.551Z,9.40
2023-05-01T07:32:33.919Z,6.43
2023-05-01T07:35:01.323Z,8.77
2023-05-01T07:37:28.947Z,7.13
2023-05-01T07:39:57.485Z,8.35
2023-05-01T07:42:24.801Z,5.72
2023-05-01T07:44:52.368Z,5.25
2023-05-01T07:47:19.732Z,4.35
2023-05-01T07:49:48.613Z,5.22
2023-05-01T07:52:16.092Z,5.93
2023-05-01T07:54:43.436Z,8.45
2023-05-01T07:57:10.966Z,7.18
2023-05-01T07:59:38.295Z,6.25
2023-05-01T08:02:05.799Z,7.28
2023-05-01T08:04:33.570Z,5.25
2023-05-01T08:07:01.383Z,9.57
2023-05-01T08:09:28.917Z,12.43
2023-05-01T08:11:56.295Z,4.85
2023-05-01T08:14:23.817Z,7.50
2023-05-01T08:16:55.563Z,5.10
2023-05-01T08:19:29.661Z,9.33
2023-05-01T08:21:59.528Z,5.80
2023-05-01T08:24:27.552Z,4.75
2023-05-01T08:26:55.316Z,7.30
2023-05-01T08:29:25.465Z,7.68
2023-05-01T08:31:52.717Z,6.28
2023-05-01T08:34:20.134Z,5.15
2023-05-01T08:36:47.595Z,5.85
2023-05-01T08:39:18.231Z,5.68
2023-05-01T08:41:48.864Z,5.93
2023-05-01T08:44:17.692Z,12.50
2023-05-01T08:47:08.363Z,6.65
2023-05-01T08:49:38.048Z,7.47
2023-05-01T08:52:12.045Z,11.55
2023-05-01T08:54:44.854Z,9.00
2023-05-01T08:57:12.909Z,5.40
2023-05-01T08:59:41.090Z,8.75
2023-05-01T09:02:11.463Z,5.30
2023-05-01T09:04:41.242Z,7.03
2023-05-01T09:07:12.484Z,5.43
2023-05-01T09:09:40.062Z,6.72
2023-05-01T09:12:25.074Z,9.48
2023-05-01T09:14:54.827Z,8.43
2023-05-01T09:17:23.746Z,7.63
2023-05-01T09:19:52.422Z,7.68
2023-05-01T09:22:20.532Z,5.20
2023-05-01T09:24:47.840Z,5.80
2023-05-01T09:27:15.506Z,8.52
2023-05-01T09:29:48.379Z,5.53
2023-05-01T09:32:21.703Z,7.80
2023-05-01T09:34:50.103Z,5.18
2023-05-01T09:37:30.816Z,8.80
2023-05-01T09:40:12.044Z,7.07
2023-05-01T09:42:41.667Z,4.80
2023-05-01T09:45:16.225Z,6.57
2023-05-01T09:47:44.302Z,6.22
2023-05-01T09:50:30.987Z,8.70
2023-05-01T09:53:01.026Z,10.60
2023-05-01T09:55:28.659Z,5.25
2023-05-01T09:57:56.000Z,8.65
2023-05-01T10:00:23.290Z,10.98
2023-05-01T10:02:51.217Z,7.47
2023-05-01T10:05:19.784Z,7.45
2023-05-01T10:07:57.653Z,3.80
2023-05-01T10:10:25.604Z,4.30
2023-05-01T10:12:53.062Z,8.35
2023-05-01T10:15:25.996Z,4.45
2023-05-01T10:17:55.029Z,6.80
2023-05-01T10:20:22.445Z,6.75
2023-05-01T10:22:50.016Z,7.65
2023-05-01T10:25:18.263Z,5.35
2023-05-01T10:27:46.670Z,6.03
2023-05-01T10:30:17.435Z,5.25
2023-05-01T10:32:44.944Z,5.20
2023-05-01T10:35:19.128Z,8.45
2023-05-01T10:38:01.119Z,3.85
2023-05-01T10:40:45.223Z,4.82
2023-05-01T10:43:30.148Z,6.43
2023-05-01T10:46:10.127Z,3.95
2023-05-01T10:48:40.861Z,7.22
2023-05-01T10:51:15.906Z,4.40
2023-05-01T10:53:44.273Z,4.50
2023-05-01T10:56:34.740Z,5.72
2023-05-01T10:59:06.772Z,6.28
2023-05-01T11:01:40.024Z,9.23
2023-05-01T11:04:20.791Z,7.25
2023-05-01T11:07:08.757Z,6.72
2023-05-01T11:09:45.660Z,4.47
2023-05-01T11:12:49.643Z,5.13
2023-05-01T11:15:27.881Z,4.90
2023-05-01T11:17:56.221Z,4.03
2023-05-01T11:20:26.470Z,4.18
2023-05-01T11:22:57.993Z,3.33
2023-05-01T11:25:31.168Z,3.47
2023-05-01T11:28:00.924Z,3.53
2023-05-01T11:30:38.970Z,4.57
2023-05-01T11:33:10.175Z,2.88
2023-05-01T11:35:39.026Z,2.88
2023-05-01T11:38:06.528Z,4.65
2023-05-01T11:40:36.990Z,2.45
2023-05-01T11:43:09.098Z,12.65
2023-05-01T11:45:37.836Z,3.60
2023-05-01T11:48:14.412Z,4.60
2023-05-01T11:50:41.898Z,3.55
2023-05-01T11:53:18.697Z,2.47
2023-05-01T11:55:46.573Z,6.55
2023-05-01T11:58:14.339Z,2.30
2023-05-01T12:00:43.706Z,2.28
2023-05-01T12:03:15.538Z,3.33
2023-05-01T12:05:45.050Z,4.90
2023-05-01T12:08:20.933Z,4.88
2023-05-01T12:10:53.325Z,2.50
2023-05-01T12:13:21.009Z,5.15
2023-05-01T12:15:51.868Z,1.80
2023-05-01T12:18:21.579Z,4.18
2023-05-01T12:20:54.721Z,3.08
2023-05-01T12:23:39.509Z,2.33
2023-05-01T12:26:20.236Z,1.55
2023-05-01T12:29:14.056Z,3.00
2023-05-01T12:31:49.049Z,2.45
2023-05-01T12:34:16.738Z,3.75
2023-05-01T12:36:53.498Z,2.25
2023-05-01T12:39:22.209Z,3.25
2023-05-01T12:41:49.929Z,2.53
2023-05-01T12:44:25.203Z,2.13
2023-05-01T12:47:02.119Z,1.88
2023-05-01T12:49:30.607Z,2.28
2023-05-01T12:52:02.908Z,2.22
2023-05-01T12:54:32.815Z,4.75
2023-05-01T12:57:18.138Z,3.38
2023-05-01T12:59:47.397Z,3.33
2023-05-01T13:02:17.558Z,1.98
2023-05-01T13:04:45.628Z,2.85
2023-05-01T13:07:19.752Z,2.45
2023-05-01T13:10:00.529Z,2.10
2023-05-01T13:12:29.030Z,1.98
2023-05-01T13:14:57.234Z,2.42
2023-05-01T13:17:32.012Z,2.28
2023-05-01T13:20:04.011Z,2.03
2023-05-01T13:22:36.199Z,2.88
2023-05-01T13:25:15.487Z,3.78
2023-05-01T13:27:49.044Z,3.83
2023-05-01T13:30:21.993Z,5.25
2023-05-01T13:32:49.768Z,1.88
2023-05-01T13:35:25.116Z,5.47
2023-05-01T13:37:56.296Z,3.67
2023-05-01T13:40:26.269Z,3.50
2023-05-01T13:42:54.277Z,2.47
2023-05-01T13:45:21.820Z,1.90
2023-05-01T13:47:52.136Z,2.45
2023-05-01T13:50:19.742Z,4.22
2023-05-01T13:52:47.738Z,2.45
2023-05-01T13:55:17.937Z,2.92
2023-05-01T13:57:46.779Z,3.10
2023-05-01T14:00:19.021Z,3.95
2023-05-01T14:02:48.959Z,2.85
2023-05-01T14:05:27.382Z,2.97
2023-05-01T14:07:57.062Z,2.80
2023-05-01T14:10:27.884Z,3.80
2023-05-01T14:12:58.016Z,2.80
2023-05-01T14:15:25.638Z,2.60
2023-05-01T14:17:53.256Z,2.33
2023-05-01T14:20:23.360Z,2.75
2023-05-01T14:22:53.762Z,3.33
2023-05-01T14:25:37.752Z,2.70
2023-05-01T14:28:08.214Z,6.97
2023-05-01T14:30:40.070Z,2.53
2023-05-01T14:33:09.996Z,2.22
2023-05-01T14:35:44.179Z,3.60
2023-05-01T14:38:14.459Z,3.15
2023-05-01T14:40:42.096Z,4.30
2023-05-01T14:43:13.434Z,4.03
2023-05-01T14:45:46.112Z,3.38
2023-05-01T14:48:26.678Z,3.63
2023-05-01T14:50:59.554Z,3.40
2023-05-01T14:53:27.802Z,6.35
2023-05-01T14:55:55.118Z,3.15
2023-05-01T14:58:22.596Z,3.40
2023-05-01T15:00:52.959Z,5.25
2023-05-01T15:03:20.547Z,4.15
2023-05-01T15:05:50.497Z,3.20
2023-05-01T15:08:17.812Z,3.50
2023-05-01T15:10:45.844Z,4.20
2023-05-01T15:13:13.186Z,2.33
2023-05-01T15:15:40.832Z,3.25
2023-05-01T15:18:08.188Z,2.70
2023-05-01T15:20:35.453Z,5.13
2023-05-01T15:23:02.924Z,3.75
2023-05-01T15:25:33.250Z,3.90
2023-05-01T15:28:00.470Z,2.38
2023-05-01T15:30:27.865Z,3.75
2023-05-01T15:32:58.195Z,4.15
2023-05-01T15:35:28.255Z,2.65
2023-05-01T15:37:56.635Z,3.00
2023-05-01T15:40:24.198Z,7.70
2023-05-01T15:42:51.909Z,4.53
2023-05-01T15:45:19.224Z,3.90
2023-05-01T15:47:46.721Z,3.28
2023-05-01T15:50:14.048Z,5.18
2023-05-01T15:52:41.575Z,7.18
2023-05-01T15:55:09.336Z,3.78
2023-05-01T15:57:36.843Z,5.07
2023-05-01T16:00:04.799Z,7.43
2023-05-01T16:02:38.000Z,2.65
2023-05-01T16:05:05.746Z,4.00
2023-05-01T16:07:34.011Z,2.92
2023-05-01T16:10:01.730Z,2.78
2023-05-01T16:12:32.003Z,4.82
2023-05-01T16:15:02.883Z,4.70
2023-05-01T16:17:42.409Z,2.63
2023-05-01T16:20:12.393Z,3.28
2023-05-01T16:22:41.620Z,2.58
2023-05-01T16:25:13.206Z,8.20
2023-05-01T16:27:45.924Z,5.05
2023-05-01T16:30:16.976Z,3.05
2023-05-01T16:32:45.949Z,6.15
2023-05-01T16:35:18.686Z,7.03
2023-05-01T16:40:18.130Z,3.28
2023-05-01T16:42:53.604Z,3.67
2023-05-01T16:45:21.825Z,3.78
2023-05-01T16:47:49.269Z,4.60
2023-05-01T16:50:17.243Z,3.72
2023-05-01T16:52:44.704Z,4.43
2023-05-01T16:55:13.093Z,3.45
2023-05-01T16:57:43.624Z,4.13
2023-05-01T17:00:12.060Z,3.10
2023-05-01T17:02:39.751Z,4.07
2023-05-01T17:05:10.562Z,3.28
2023-05-01T17:07:38.028Z,3.88
2023-05-01T17:10:06.101Z,2.10
2023-05-01T17:12:33.653Z,4.20
2023-05-01T17:15:01.202Z,5.35
2023-05-01T17:17:29.157Z,5.55
2023-05-01T17:19:56.838Z,3.67
2023-05-01T17:22:24.605Z,3.88
2023-05-01T17:24:52.482Z,3.75
2023-05-01T17:27:19.769Z,2.45
2023-05-01T17:29:47.246Z,3.63
2023-05-01T17:32:20.335Z,4.82
2023-05-01T17:34:58.315Z,2.40
2023-05-01T17:37:25.788Z,2.22
2023-05-01T17:39:53.285Z,4.72
2023-05-01T17:42:22.421Z,3.20
2023-05-01T17:44:49.948Z,2.97
2023-05-01T17:47:17.457Z,5.90
2023-05-01T17:49:44.511Z,3.63
2023-05-01T17:52:12.454Z,3.40
2023-05-01T17:54:39.689Z,2.55
2023-05-01T17:57:08.385Z,3.40
2023-05-01T17:59:36.589Z,4.10
2023-05-01T18:02:04.171Z,5.57
2023-05-01T18:04:31.889Z,5.20
2023-05-01T18:07:00.744Z,4.95
2023-05-01T18:09:27.924Z,3.70
2023-05-01T18:11:55.349Z,3.63
2023-05-01T18:14:22.825Z,3.22
2023-05-01T18:16:50.327Z,3.83
2023-05-01T18:19:17.899Z,15.20
2023-05-01T18:21:45.200Z,5.75
2023-05-01T18:24:12.631Z,3.85
2023-05-01T18:26:40.019Z,5.20
2023-05-01T18:29:07.802Z,5.25
2023-05-01T18:31:38.229Z,5.05
2023-05-01T18:34:07.312Z,4.30
2023-05-01T18:36:34.564Z,4.97
2023-05-01T18:39:02.406Z,6.75
2023-05-01T18:41:29.698Z,4.90
2023-05-01T18:43:58.109Z,4.55
2023-05-01T18:46:25.502Z,9.88
2023-05-01T18:48:53.132Z,8.73
2023-05-01T18:51:20.929Z,5.50
2023-05-01T18:53:48.677Z,6.45
2023-05-01T18:56:16.970Z,6.25
2023-05-01T18:58:44.612Z,5.38
2023-05-01T19:01:11.986Z,5.22
2023-05-01T19:03:39.475Z,6.90
2023-05-01T19:06:10.579Z,5.03
2023-05-01T19:08:37.942Z,10.18
2023-05-01T19:11:06.153Z,10.68
2023-05-01T19:13:34.126Z,7.38
2023-05-01T19:16:01.607Z,6.95
2023-05-01T19:18:28.781Z,7.38
2023-05-01T19:20:56.536Z,5.57
2023-05-01T19:23:23.816Z,6.85
2023-05-01T19:25:51.319Z,4.53
2023-05-01T19:28:18.667Z,5.50
2023-05-01T19:30:45.955Z,4.00
2023-05-01T19:33:13.499Z,4.80
2023-05-01T19:35:41.002Z,4.25
2023-05-01T19:38:08.306Z,4.93
2023-05-01T19:40:35.632Z,6.35
2023-05-01T19:43:03.053Z,2.55
2023-05-01T19:45:30.469Z,2.50
2023-05-01T19:47:58.529Z,3.42
2023-05-01T19:50:26.510Z,4.38
2023-05-01T19:52:54.459Z,2.92
2023-05-01T19:55:22.044Z,2.60
2023-05-01T19:57:49.521Z,4.53
2023-05-01T20:00:17.120Z,4.65
2023-05-01T20:02:44.601Z,2.67
2023-05-01T20:05:13.189Z,2.03
2023-05-01T20:07:41.376Z,3.45
2023-05-01T20:10:09.872Z,2.92
2023-05-01T20:12:37.456Z,4.13
2023-05-01T20:15:05.628Z,2.47
2023-05-01T20:17:34.422Z,2.80
2023-05-01T20:20:01.942Z,2.25
2023-05-01T20:22:31.088Z,2.65
2023-05-01T20:24:58.459Z,2.63
2023-05-01T20:27:26.309Z,2.88
2023-05-01T20:29:57.135Z,1.70
2023-05-01T20:32:24.964Z,1.90
2023-05-01T20:34:55.366Z,1.98
2023-05-01T20:37:22.656Z,1.80
2023-05-01T20:39:50.183Z,4.70
2023-05-01T20:42:17.502Z,2.30
2023-05-01T20:44:44.985Z,3.67
2023-05-01T20:47:14.054Z,2.35
2023-05-01T20:49:41.511Z,3.00
2023-05-01T20:52:10.205Z,2.40
2023-05-01T20:54:37.572Z,3.45
2023-05-01T20:57:05.378Z,6.40
2023-05-01T20:59:32.981Z,1.80
2023-05-01T21:02:04.831Z,4.13
2023-05-01T21:04:34.347Z,2.45
2023-05-01T21:07:01.840Z,2.70
2023-05-01T21:09:29.430Z,2.50
2023-05-01T21:11:57.004Z,2.17
2023-05-01T21:14:24.254Z,2.47
2023-05-01T21:16:51.685Z,6.10
2023-05-01T21:19:19.146Z,5.32
2023-05-01T21:21:48.738Z,2.15
2023-05-01T21:24:35.414Z,4.38
2023-05-01T21:27:07.256Z,2.75
2023-05-01T21:29:39.741Z,3.15
2023-05-01T21:32:08.646Z,3.13
2023-05-01T21:34:36.177Z,4.15
2023-05-01T21:37:03.811Z,4.97
2023-05-01T21:39:31.472Z,4.97
2023-05-01T21:41:59.238Z,2.67
2023-05-01T21:44:30.851Z,3.63
2023-05-01T21:46:58.704Z,3.03
2023-05-01T21:49:27.263Z,2.28
2023-05-01T21:52:00.029Z,1.90
2023-05-01T21:54:30.821Z,5.45
2023-05-01T21:57:02.882Z,3.25
2023-05-01T21:59:35.273Z,2.05
2023-05-01T22:02:10.870Z,2.58
2023-05-01T22:04:39.293Z,4.03
2023-05-01T22:07:07.059Z,3.25
2023-05-01T22:09:34.628Z,3.45
2023-05-01T22:12:02.083Z,3.13
2023-05-01T22:14:40.184Z,8.13
2023-05-01T22:17:14.211Z,3.92
2023-05-01T22:19:42.242Z,5.00
2023-05-01T22:22:09.429Z,3.70
2023-05-01T22:24:36.632Z,1.52
2023-05-01T22:27:04.065Z,4.32
2023-05-01T22:29:31.226Z,2.20
2023-05-01T22:31:58.459Z,2.28
2023-05-01T22:34:25.902Z,2.85
2023-05-01T22:36:53.389Z,2.90
2023-05-01T22:39:22.257Z,1.88
2023-05-01T22:41:49.715Z,1.95
2023-05-01T22:44:16.962Z,2.08
2023-05-01T22:46:44.747Z,1.73
2023-05-01T22:49:12.164Z,2.10
2023-05-01T22:51:39.387Z,3.20
2023-05-01T22:54:06.652Z,3.08
2023-05-01T22:56:33.754Z,5.32
2023-05-01T22:59:01.236Z,2.08
2023-05-01T23:01:28.633Z,1.77
2023-05-01T23:03:56.095Z,4.10
2023-05-01T23:06:23.563Z,2.10
2023-05-01T23:08:56.437Z,2.25
2023-05-01T23:11:32.597Z,2.00
2023-05-01T23:14:01.061Z,2.08
2023-05-01T23:16:36.853Z,1.77
2023-05-01T23:19:04.769Z,1.70
2023-05-01T23:21:32.118Z,3.10
2023-05-01T23:24:01.533Z,4.03
2023-05-01T23:26:29.489Z,2.03
2023-05-01T23:28:57.138Z,2.15
2023-05-01T23:31:25.955Z,1.73
2023-05-01T23:33:55.148Z,2.20
2023-05-01T23:36:22.664Z,1.88
2023-05-01T23:38:50.045Z,1.92
2023-05-01T23:41:17.386Z,1.42
2023-05-01T23:43:48.104Z,2.67
2023-05-01T23:46:15.737Z,2.58
2023-05-01T23:48:43.066Z,3.70
2023-05-01T23:51:10.842Z,1.95
2023-05-01T23:53:38.429Z,3.80
2023-05-01T23:56:06.011Z,2.75
2023-05-01T23:58:33.269Z,1.55
